sensor_id;sensor_type;location;lat;lon;timestamp;temperature;humidity
20777;DHT22;10548;47.504;8.248;2023-04-25T00:00:18;8.70;99.90
20777;DHT22;10548;47.504;8.248;2023-04-25T00:02:45;8.70;99.90
20777;DHT22;10548;47.504;8.248;2023-04-25T00:05:13;8.70;99.90
20777;DHT22;10548;47.504;8.248;2023-04-25T00:07:42;8.80;99.90
20777;DHT22;10548;47.504;8.248;2023-04-25T00:10:10;8.80;99.90
20777;DHT22;10548;47.504;8.248;2023-04-25T00:12:38;8.90;99.90
20777;DHT22;10548;47.504;8.248;2023-04-25T00:15:06;8.80;99.90
20777;DHT22;10548;47.504;8.248;2023-04-25T00:17:33;8.80;99.90
20777;DHT22;10548;47.504;8.248;2023-04-25T00:20:02;8.80;99.90
20777;DHT22;10548;47.504;8.248;2023-04-25T00:22:32;8.90;99.90
20777;DHT22;10548;47.504;8.248;2023-04-25T00:25:01;8.90;99.90
20777;DHT22;10548;47.504;8.248;2023-04-25T00:27:28;8.80;99.90
20777;DHT22;10548;47.504;8.248;2023-04-25T00:29:55;8.80;99.90
20777;DHT22;10548;47.504;8.248;2023-04-25T00:32:22;8.80;99.90
20777;DHT22;10548;47.504;8.248;2023-04-25T00:34:49;8.60;99.90
20777;DHT22;10548;47.504;8.248;2023-04-25T00:37:17;8.60;99.90
20777;DHT22;10548;47.504;8.248;2023-04-25T00:39:45;8.50;99.90
20777;DHT22;10548;47.504;8.248;2023-04-25T00:42:12;8.50;99.90
20777;DHT22;10548;47.504;8.248;2023-04-25T00:44:41;8.40;99.90
20777;DHT22;10548;47.504;8.248;2023-04-25T00:47:08;8.40;99.90
20777;DHT22;10548;47.504;8.248;2023-04-25T00:49:37;8.40;99.90
20777;DHT22;10548;47.504;8.248;2023-04-25T00:52:05;8.60;99.40
20777;DHT22;10548;47.504;8.248;2023-04-25T00:54:32;8.40;99.90
20777;DHT22;10548;47.504;8.248;2023-04-25T00:56:59;8.30;99.90
20777;DHT22;10548;47.504;8.248;2023-04-25T00:59:28;8.50;97.80
20777;DHT22;10548;47.504;8.248;2023-04-25T01:01:57;8.40;98.00
20777;DHT22;10548;47.504;8.248;2023-04-25T01:04:29;8.40;97.30
20777;DHT22;10548;47.504;8.248;2023-04-25T01:06:58;8.30;97.50
20777;DHT22;10548;47.504;8.248;2023-04-25T01:09:25;8.30;97.90
20777;DHT22;10548;47.504;8.248;2023-04-25T01:11:53;8.20;98.10
20777;DHT22;10548;47.504;8.248;2023-04-25T01:14:20;8.00;99.60
20777;DHT22;10548;47.504;8.248;2023-04-25T01:16:47;7.90;99.90
20777;DHT22;10548;47.504;8.248;2023-04-25T01:19:16;7.90;99.90
20777;DHT22;10548;47.504;8.248;2023-04-25T01:21:46;7.90;99.90
20777;DHT22;10548;47.504;8.248;2023-04-25T01:24:13;7.90;99.90
20777;DHT22;10548;47.504;8.248;2023-04-25T01:26:42;7.80;99.90
20777;DHT22;10548;47.504;8.248;2023-04-25T01:29:21;7.80;99.90
20777;DHT22;10548;47.504;8.248;2023-04-25T01:31:49;7.80;99.90
20777;DHT22;10548;47.504;8.248;2023-04-25T01:34:16;7.90;99.90
20777;DHT22;10548;47.504;8.248;2023-04-25T01:36:44;7.80;99.90
20777;DHT22;10548;47.504;8.248;2023-04-25T01:39:11;7.60;99.90
20777;DHT22;10548;47.504;8.248;2023-04-25T01:41:38;7.50;99.90
20777;DHT22;10548;47.504;8.248;2023-04-25T01:44:06;7.40;99.90
20777;DHT22;10548;47.504;8.248;2023-04-25T01:46:34;7.40;99.90
20777;DHT22;10548;47.504;8.248;2023-04-25T01:49:02;7.20;99.90
20777;DHT22;10548;47.504;8.248;2023-04-25T01:51:30;7.10;99.90
20777;DHT22;10548;47.504;8.248;2023-04-25T01:53:58;7.00;99.90
20777;DHT22;10548;47.504;8.248;2023-04-25T01:56:31;7.00;99.90
20777;DHT22;10548;47.504;8.248;2023-04-25T01:59:00;6.90;99.90
20777;DHT22;10548;47.504;8.248;2023-04-25T02:01:50;6.80;99.90
20777;DHT22;10548;47.504;8.248;2023-04-25T02:04:25;6.70;99.90
20777;DHT22;10548;47.504;8.248;2023-04-25T02:06:52;6.80;99.90
20777;DHT22;10548;47.504;8.248;2023-04-25T02:09:21;6.90;99.90
20777;DHT22;10548;47.504;8.248;2023-04-25T02:11:53;7.00;99.90
20777;DHT22;10548;47.504;8.248;2023-04-25T02:14:40;6.80;99.90
20777;DHT22;10548;47.504;8.248;2023-04-25T02:17:14;6.70;99.90
20777;DHT22;10548;47.504;8.248;2023-04-25T02:19:44;6.50;99.90
20777;DHT22;10548;47.504;8.248;2023-04-25T02:22:12;6.50;99.90
20777;DHT22;10548;47.504;8.248;2023-04-25T02:24:39;6.60;99.90
20777;DHT22;10548;47.504;8.248;2023-04-25T02:27:06;6.70;99.90
20777;DHT22;10548;47.504;8.248;2023-04-25T02:29:35;6.80;99.90
20777;DHT22;10548;47.504;8.248;2023-04-25T02:32:02;6.80;99.90
20777;DHT22;10548;47.504;8.248;2023-04-25T02:34:29;6.80;99.90
20777;DHT22;10548;47.504;8.248;2023-04-25T02:37:00;6.70;99.90
20777;DHT22;10548;47.504;8.248;2023-04-25T02:39:27;6.50;99.90
20777;DHT22;10548;47.504;8.248;2023-04-25T02:41:55;6.50;99.90
20777;DHT22;10548;47.504;8.248;2023-04-25T02:44:22;6.40;99.90
20777;DHT22;10548;47.504;8.248;2023-04-25T02:46:49;6.40;99.90
20777;DHT22;10548;47.504;8.248;2023-04-25T02:49:16;6.40;99.90
20777;DHT22;10548;47.504;8.248;2023-04-25T02:51:43;6.30;99.90
20777;DHT22;10548;47.504;8.248;2023-04-25T02:54:11;6.10;99.90
20777;DHT22;10548;47.504;8.248;2023-04-25T02:56:42;6.10;99.90
20777;DHT22;10548;47.504;8.248;2023-04-25T02:59:14;6.10;99.90
20777;DHT22;10548;47.504;8.248;2023-04-25T03:01:41;6.10;99.90
20777;DHT22;10548;47.504;8.248;2023-04-25T03:04:08;6.00;99.90
20777;DHT22;10548;47.504;8.248;2023-04-25T03:06:36;5.90;99.90
20777;DHT22;10548;47.504;8.248;2023-04-25T03:09:03;5.80;99.90
20777;DHT22;10548;47.504;8.248;2023-04-25T03:11:31;5.90;99.90
20777;DHT22;10548;47.504;8.248;2023-04-25T03:13:59;5.90;99.90
20777;DHT22;10548;47.504;8.248;2023-04-25T03:16:26;6.00;99.90
20777;DHT22;10548;47.504;8.248;2023-04-25T03:18:54;6.10;99.90
20777;DHT22;10548;47.504;8.248;2023-04-25T03:21:21;6.00;99.90
20777;DHT22;10548;47.504;8.248;2023-04-25T03:23:50;6.00;99.90
20777;DHT22;10548;47.504;8.248;2023-04-25T03:26:18;5.90;99.90
20777;DHT22;10548;47.504;8.248;2023-04-25T03:28:45;5.80;99.90
20777;DHT22;10548;47.504;8.248;2023-04-25T03:31:12;5.90;99.90
20777;DHT22;10548;47.504;8.248;2023-04-25T03:33:40;6.00;99.90
20777;DHT22;10548;47.504;8.248;2023-04-25T03:36:07;6.00;99.90
20777;DHT22;10548;47.504;8.248;2023-04-25T03:38:35;5.90;99.90
20777;DHT22;10548;47.504;8.248;2023-04-25T03:41:02;5.80;99.90
20777;DHT22;10548;47.504;8.248;2023-04-25T03:43:46;5.90;99.90
20777;DHT22;10548;47.504;8.248;2023-04-25T03:46:15;5.90;99.90
20777;DHT22;10548;47.504;8.248;2023-04-25T03:48:42;5.90;99.90
20777;DHT22;10548;47.504;8.248;2023-04-25T03:51:14;5.80;99.90
20777;DHT22;10548;47.504;8.248;2023-04-25T03:53:44;5.70;99.90
20777;DHT22;10548;47.504;8.248;2023-04-25T03:56:30;5.70;99.90
20777;DHT22;10548;47.504;8.248;2023-04-25T03:59:08;5.70;99.90
20777;DHT22;10548;47.504;8.248;2023-04-25T04:01:35;5.70;99.90
20777;DHT22;10548;47.504;8.248;2023-04-25T04:04:03;5.60;99.90
20777;DHT22;10548;47.504;8.248;2023-04-25T04:06:31;5.60;99.90
20777;DHT22;10548;47.504;8.248;2023-04-25T04:09:06;5.50;99.90
20777;DHT22;10548;47.504;8.248;2023-04-25T04:11:39;5.50;99.90
20777;DHT22;10548;47.504;8.248;2023-04-25T04:14:07;5.50;99.90
20777;DHT22;10548;47.504;8.248;2023-04-25T04:16:36;5.50;99.90
20777;DHT22;10548;47.504;8.248;2023-04-25T04:19:04;5.60;99.90
20777;DHT22;10548;47.504;8.248;2023-04-25T04:21:33;5.70;99.90
20777;DHT22;10548;47.504;8.248;2023-04-25T04:24:01;5.70;99.90
20777;DHT22;10548;47.504;8.248;2023-04-25T04:26:34;5.70;99.90
20777;DHT22;10548;47.504;8.248;2023-04-25T04:29:11;5.70;99.90
20777;DHT22;10548;47.504;8.248;2023-04-25T04:31:53;5.70;99.90
20777;DHT22;10548;47.504;8.248;2023-04-25T04:34:21;5.70;99.90
20777;DHT22;10548;47.504;8.248;2023-04-25T04:36:48;5.80;99.90
20777;DHT22;10548;47.504;8.248;2023-04-25T04:39:15;5.90;99.90
20777;DHT22;10548;47.504;8.248;2023-04-25T04:42:04;5.80;99.90
20777;DHT22;10548;47.504;8.248;2023-04-25T04:44:50;5.90;99.90
20777;DHT22;10548;47.504;8.248;2023-04-25T04:47:25;6.00;99.90
20777;DHT22;10548;47.504;8.248;2023-04-25T04:50:03;6.00;99.90
20777;DHT22;10548;47.504;8.248;2023-04-25T04:53:01;6.10;99.90
20777;DHT22;10548;47.504;8.248;2023-04-25T04:55:58;6.10;99.90
20777;DHT22;10548;47.504;8.248;2023-04-25T04:58:52;6.10;99.90
20777;DHT22;10548;47.504;8.248;2023-04-25T05:01:45;6.10;99.90
20777;DHT22;10548;47.504;8.248;2023-04-25T05:04:20;6.10;99.90
20777;DHT22;10548;47.504;8.248;2023-04-25T05:07:23;6.30;99.90
20777;DHT22;10548;47.504;8.248;2023-04-25T05:10:10;6.50;99.90
20777;DHT22;10548;47.504;8.248;2023-04-25T05:13:00;6.40;99.90
20777;DHT22;10548;47.504;8.248;2023-04-25T05:15:42;6.40;99.90
20777;DHT22;10548;47.504;8.248;2023-04-25T05:18:29;6.40;99.90
20777;DHT22;10548;47.504;8.248;2023-04-25T05:21:20;6.60;99.90
20777;DHT22;10548;47.504;8.248;2023-04-25T05:24:14;6.70;99.90
20777;DHT22;10548;47.504;8.248;2023-04-25T05:26:59;6.80;99.90
20777;DHT22;10548;47.504;8.248;2023-04-25T05:29:54;7.00;99.90
20777;DHT22;10548;47.504;8.248;2023-04-25T05:32:27;7.00;99.90
20777;DHT22;10548;47.504;8.248;2023-04-25T05:35:08;7.10;99.90
20777;DHT22;10548;47.504;8.248;2023-04-25T05:37:42;6.80;99.90
20777;DHT22;10548;47.504;8.248;2023-04-25T05:40:12;6.70;99.90
20777;DHT22;10548;47.504;8.248;2023-04-25T05:42:58;6.80;99.90
20777;DHT22;10548;47.504;8.248;2023-04-25T05:45:44;6.70;99.90
20777;DHT22;10548;47.504;8.248;2023-04-25T05:48:29;6.60;99.90
20777;DHT22;10548;47.504;8.248;2023-04-25T05:51:20;6.60;99.90
20777;DHT22;10548;47.504;8.248;2023-04-25T05:54:04;6.50;99.90
20777;DHT22;10548;47.504;8.248;2023-04-25T05:56:33;6.30;99.90
20777;DHT22;10548;47.504;8.248;2023-04-25T05:59:00;6.10;99.90
20777;DHT22;10548;47.504;8.248;2023-04-25T06:01:28;6.10;99.90
20777;DHT22;10548;47.504;8.248;2023-04-25T06:03:55;6.10;99.90
20777;DHT22;10548;47.504;8.248;2023-04-25T06:06:23;6.00;99.90
20777;DHT22;10548;47.504;8.248;2023-04-25T06:08:50;5.80;99.90
20777;DHT22;10548;47.504;8.248;2023-04-25T06:11:18;5.80;99.90
20777;DHT22;10548;47.504;8.248;2023-04-25T06:13:45;5.70;99.90
20777;DHT22;10548;47.504;8.248;2023-04-25T06:16:14;5.70;99.90
20777;DHT22;10548;47.504;8.248;2023-04-25T06:18:41;5.80;99.90
20777;DHT22;10548;47.504;8.248;2023-04-25T06:21:08;5.90;99.90
20777;DHT22;10548;47.504;8.248;2023-04-25T06:23:36;5.90;99.90
20777;DHT22;10548;47.504;8.248;2023-04-25T06:26:06;6.00;99.90
20777;DHT22;10548;47.504;8.248;2023-04-25T06:28:36;6.10;99.90
20777;DHT22;10548;47.504;8.248;2023-04-25T06:31:04;6.10;99.90
20777;DHT22;10548;47.504;8.248;2023-04-25T06:33:31;6.30;99.90
20777;DHT22;10548;47.504;8.248;2023-04-25T06:35:59;6.40;99.90
20777;DHT22;10548;47.504;8.248;2023-04-25T06:38:27;6.50;99.90
20777;DHT22;10548;47.504;8.248;2023-04-25T06:40:56;6.50;99.90
20777;DHT22;10548;47.504;8.248;2023-04-25T06:43:25;6.50;99.90
20777;DHT22;10548;47.504;8.248;2023-04-25T06:46:04;6.60;99.90
20777;DHT22;10548;47.504;8.248;2023-04-25T06:48:36;6.60;99.90
20777;DHT22;10548;47.504;8.248;2023-04-25T06:51:04;6.60;99.90
20777;DHT22;10548;47.504;8.248;2023-04-25T06:53:33;6.70;99.90
20777;DHT22;10548;47.504;8.248;2023-04-25T06:56:03;6.70;99.90
20777;DHT22;10548;47.504;8.248;2023-04-25T06:58:47;6.80;99.90
20777;DHT22;10548;47.504;8.248;2023-04-25T07:01:23;6.90;99.90
20777;DHT22;10548;47.504;8.248;2023-04-25T07:03:50;6.80;99.90
20777;DHT22;10548;47.504;8.248;2023-04-25T07:06:18;6.70;99.90
20777;DHT22;10548;47.504;8.248;2023-04-25T07:08:46;6.70;99.90
20777;DHT22;10548;47.504;8.248;2023-04-25T07:11:13;6.80;99.90
20777;DHT22;10548;47.504;8.248;2023-04-25T07:13:40;6.80;99.90
20777;DHT22;10548;47.504;8.248;2023-04-25T07:16:07;6.70;99.90
20777;DHT22;10548;47.504;8.248;2023-04-25T07:18:35;6.70;99.90
20777;DHT22;10548;47.504;8.248;2023-04-25T07:21:03;6.80;99.90
20777;DHT22;10548;47.504;8.248;2023-04-25T07:23:32;6.80;99.90
20777;DHT22;10548;47.504;8.248;2023-04-25T07:26:03;6.80;99.90
20777;DHT22;10548;47.504;8.248;2023-04-25T07:28:31;6.90;99.90
20777;DHT22;10548;47.504;8.248;2023-04-25T07:30:58;6.90;99.90
20777;DHT22;10548;47.504;8.248;2023-04-25T07:33:25;7.20;99.90
20777;DHT22;10548;47.504;8.248;2023-04-25T07:35:53;7.40;99.90
20777;DHT22;10548;47.504;8.248;2023-04-25T07:38:22;7.60;99.90
20777;DHT22;10548;47.504;8.248;2023-04-25T07:40:49;7.80;99.90
20777;DHT22;10548;47.504;8.248;2023-04-25T07:43:17;7.60;99.90
20777;DHT22;10548;47.504;8.248;2023-04-25T07:45:52;7.60;99.90
20777;DHT22;10548;47.504;8.248;2023-04-25T07:48:20;7.40;99.90
20777;DHT22;10548;47.504;8.248;2023-04-25T07:50:50;7.60;99.90
20777;DHT22;10548;47.504;8.248;2023-04-25T07:53:18;7.60;99.90
20777;DHT22;10548;47.504;8.248;2023-04-25T07:55:51;7.70;99.90
20777;DHT22;10548;47.504;8.248;2023-04-25T07:58:20;7.70;99.90
20777;DHT22;10548;47.504;8.248;2023-04-25T08:00:56;8.00;99.90
20777;DHT22;10548;47.504;8.248;2023-04-25T08:03:46;8.00;99.90
20777;DHT22;10548;47.504;8.248;2023-04-25T08:06:20;8.10;99.90
20777;DHT22;10548;47.504;8.248;2023-04-25T08:09:20;8.00;99.90
20777;DHT22;10548;47.504;8.248;2023-04-25T08:11:48;8.30;99.90
20777;DHT22;10548;47.504;8.248;2023-04-25T08:14:20;8.30;99.90
20777;DHT22;10548;47.504;8.248;2023-04-25T08:16:48;8.50;99.90
20777;DHT22;10548;47.504;8.248;2023-04-25T08:19:17;8.30;99.90
20777;DHT22;10548;47.504;8.248;2023-04-25T08:21:45;8.10;99.90
20777;DHT22;10548;47.504;8.248;2023-04-25T08:24:18;8.10;99.90
20777;DHT22;10548;47.504;8.248;2023-04-25T08:26:45;8.00;99.90
20777;DHT22;10548;47.504;8.248;2023-04-25T08:29:15;8.00;99.90
20777;DHT22;10548;47.504;8.248;2023-04-25T08:31:43;7.90;99.90
20777;DHT22;10548;47.504;8.248;2023-04-25T08:34:12;7.90;99.90
20777;DHT22;10548;47.504;8.248;2023-04-25T08:36:46;8.10;99.90
20777;DHT22;10548;47.504;8.248;2023-04-25T08:39:21;8.10;99.90
20777;DHT22;10548;47.504;8.248;2023-04-25T08:42:21;7.90;99.90
20777;DHT22;10548;47.504;8.248;2023-04-25T08:47:21;7.70;99.90
20777;DHT22;10548;47.504;8.248;2023-04-25T08:49:54;7.80;99.90
20777;DHT22;10548;47.504;8.248;2023-04-25T08:52:23;7.80;99.90
20777;DHT22;10548;47.504;8.248;2023-04-25T08:54:52;8.00;99.90
20777;DHT22;10548;47.504;8.248;2023-04-25T08:57:21;8.10;99.90
20777;DHT22;10548;47.504;8.248;2023-04-25T08:59:52;8.40;99.90
20777;DHT22;10548;47.504;8.248;2023-04-25T09:02:21;9.00;99.90
20777;DHT22;10548;47.504;8.248;2023-04-25T09:04:50;9.10;99.90
20777;DHT22;10548;47.504;8.248;2023-04-25T09:07:18;9.00;99.90
20777;DHT22;10548;47.504;8.248;2023-04-25T09:09:49;9.00;99.90
20777;DHT22;10548;47.504;8.248;2023-04-25T09:12:19;9.20;99.90
20777;DHT22;10548;47.504;8.248;2023-04-25T09:15:23;9.00;99.90
20777;DHT22;10548;47.504;8.248;2023-04-25T09:18:04;9.10;99.90
20777;DHT22;10548;47.504;8.248;2023-04-25T09:20:44;9.00;99.90
20777;DHT22;10548;47.504;8.248;2023-04-25T09:23:29;9.10;99.90
20777;DHT22;10548;47.504;8.248;2023-04-25T09:25:57;9.10;99.90
20777;DHT22;10548;47.504;8.248;2023-04-25T09:28:25;9.00;99.90
20777;DHT22;10548;47.504;8.248;2023-04-25T09:30:57;9.00;99.90
20777;DHT22;10548;47.504;8.248;2023-04-25T09:33:32;8.90;99.90
20777;DHT22;10548;47.504;8.248;2023-04-25T09:36:05;9.00;99.90
20777;DHT22;10548;47.504;8.248;2023-04-25T09:38:51;8.90;99.90
20777;DHT22;10548;47.504;8.248;2023-04-25T09:41:31;9.00;99.90
20777;DHT22;10548;47.504;8.248;2023-04-25T09:44:01;8.90;99.90
20777;DHT22;10548;47.504;8.248;2023-04-25T09:46:35;8.80;99.90
20777;DHT22;10548;47.504;8.248;2023-04-25T09:49:14;9.10;99.90
20777;DHT22;10548;47.504;8.248;2023-04-25T09:52:00;9.00;99.90
20777;DHT22;10548;47.504;8.248;2023-04-25T09:54:51;9.00;99.90
20777;DHT22;10548;47.504;8.248;2023-04-25T09:57:25;9.00;99.90
20777;DHT22;10548;47.504;8.248;2023-04-25T09:59:55;9.00;99.90
20777;DHT22;10548;47.504;8.248;2023-04-25T10:02:26;9.10;99.90
20777;DHT22;10548;47.504;8.248;2023-04-25T10:05:00;9.10;99.90
20777;DHT22;10548;47.504;8.248;2023-04-25T10:07:33;9.20;99.90
20777;DHT22;10548;47.504;8.248;2023-04-25T10:10:10;9.40;99.90
20777;DHT22;10548;47.504;8.248;2023-04-25T10:12:39;9.60;99.90
20777;DHT22;10548;47.504;8.248;2023-04-25T10:15:08;9.80;99.90
20777;DHT22;10548;47.504;8.248;2023-04-25T10:17:36;9.90;99.90
20777;DHT22;10548;47.504;8.248;2023-04-25T10:20:06;9.90;99.90
20777;DHT22;10548;47.504;8.248;2023-04-25T10:22:41;9.90;99.90
20777;DHT22;10548;47.504;8.248;2023-04-25T10:25:08;9.80;99.90
20777;DHT22;10548;47.504;8.248;2023-04-25T10:27:37;9.90;99.90
20777;DHT22;10548;47.504;8.248;2023-04-25T10:30:10;10.00;99.90
20777;DHT22;10548;47.504;8.248;2023-04-25T10:32:39;10.20;99.90
20777;DHT22;10548;47.504;8.248;2023-04-25T10:35:19;10.10;99.90
20777;DHT22;10548;47.504;8.248;2023-04-25T10:38:09;10.70;99.90
20777;DHT22;10548;47.504;8.248;2023-04-25T10:40:37;11.50;99.90
20777;DHT22;10548;47.504;8.248;2023-04-25T10:43:36;11.90;99.90
20777;DHT22;10548;47.504;8.248;2023-04-25T10:49:11;10.90;99.90
20777;DHT22;10548;47.504;8.248;2023-04-25T10:52:26;10.70;99.90
20777;DHT22;10548;47.504;8.248;2023-04-25T10:54:55;10.60;99.90
20777;DHT22;10548;47.504;8.248;2023-04-25T10:57:42;10.40;99.90
20777;DHT22;10548;47.504;8.248;2023-04-25T11:00:13;10.10;99.90
20777;DHT22;10548;47.504;8.248;2023-04-25T11:02:47;10.00;99.90
20777;DHT22;10548;47.504;8.248;2023-04-25T11:05:39;10.00;99.90
20777;DHT22;10548;47.504;8.248;2023-04-25T11:08:37;10.10;99.90
20777;DHT22;10548;47.504;8.248;2023-04-25T11:11:11;10.10;99.90
20777;DHT22;10548;47.504;8.248;2023-04-25T11:13:39;10.10;99.90
20777;DHT22;10548;47.504;8.248;2023-04-25T11:16:09;9.90;99.90
20777;DHT22;10548;47.504;8.248;2023-04-25T11:18:42;10.00;99.90
20777;DHT22;10548;47.504;8.248;2023-04-25T11:21:10;10.00;99.90
20777;DHT22;10548;47.504;8.248;2023-04-25T11:23:37;10.10;99.90
20777;DHT22;10548;47.504;8.248;2023-04-25T11:26:04;10.00;99.90
20777;DHT22;10548;47.504;8.248;2023-04-25T11:28:32;9.90;99.90
20777;DHT22;10548;47.504;8.248;2023-04-25T11:30:59;9.90;99.90
20777;DHT22;10548;47.504;8.248;2023-04-25T11:33:26;10.20;99.90
20777;DHT22;10548;47.504;8.248;2023-04-25T11:35:57;9.90;99.90
20777;DHT22;10548;47.504;8.248;2023-04-25T11:38:24;9.90;99.90
20777;DHT22;10548;47.504;8.248;2023-04-25T11:40:55;10.00;99.90
20777;DHT22;10548;47.504;8.248;2023-04-25T11:43:22;9.70;99.90
20777;DHT22;10548;47.504;8.248;2023-04-25T11:45:50;9.50;99.90
20777;DHT22;10548;47.504;8.248;2023-04-25T11:48:19;9.10;99.90
20777;DHT22;10548;47.504;8.248;2023-04-25T11:50:53;8.90;99.90
20777;DHT22;10548;47.504;8.248;2023-04-25T11:53:21;8.80;99.90
20777;DHT22;10548;47.504;8.248;2023-04-25T11:55:48;8.90;99.90
20777;DHT22;10548;47.504;8.248;2023-04-25T11:58:17;9.40;99.90
20777;DHT22;10548;47.504;8.248;2023-04-25T12:00:46;10.30;99.90
20777;DHT22;10548;47.504;8.248;2023-04-25T12:03:18;11.60;99.90
20777;DHT22;10548;47.504;8.248;2023-04-25T12:05:46;12.60;99.90
20777;DHT22;10548;47.504;8.248;2023-04-25T12:08:15;13.20;99.90
20777;DHT22;10548;47.504;8.248;2023-04-25T12:10:45;13.70;99.90
20777;DHT22;10548;47.504;8.248;2023-04-25T12:13:39;12.70;99.90
20777;DHT22;10548;47.504;8.248;2023-04-25T12:16:06;13.20;99.90
20777;DHT22;10548;47.504;8.248;2023-04-25T12:18:35;13.60;98.70
20777;DHT22;10548;47.504;8.248;2023-04-25T12:21:04;12.40;99.90
20777;DHT22;10548;47.504;8.248;2023-04-25T12:23:32;13.00;99.90
20777;DHT22;10548;47.504;8.248;2023-04-25T12:25:59;13.20;99.90
20777;DHT22;10548;47.504;8.248;2023-04-25T12:28:26;13.00;97.40
20777;DHT22;10548;47.504;8.248;2023-04-25T12:31:07;12.80;99.90
20777;DHT22;10548;47.504;8.248;2023-04-25T12:33:36;12.20;99.90
20777;DHT22;10548;47.504;8.248;2023-04-25T12:36:05;11.50;99.90
20777;DHT22;10548;47.504;8.248;2023-04-25T12:38:41;11.30;99.90
20777;DHT22;10548;47.504;8.248;2023-04-25T12:41:09;11.20;99.90
20777;DHT22;10548;47.504;8.248;2023-04-25T12:43:36;11.20;99.90
20777;DHT22;10548;47.504;8.248;2023-04-25T12:46:03;11.10;99.90
20777;DHT22;10548;47.504;8.248;2023-04-25T12:48:30;11.20;99.90
20777;DHT22;10548;47.504;8.248;2023-04-25T12:50:58;11.10;99.90
20777;DHT22;10548;47.504;8.248;2023-04-25T12:53:25;11.00;99.90
20777;DHT22;10548;47.504;8.248;2023-04-25T12:55:52;11.30;99.90
20777;DHT22;10548;47.504;8.248;2023-04-25T12:58:24;11.00;99.90
20777;DHT22;10548;47.504;8.248;2023-04-25T13:00:52;10.80;99.90
20777;DHT22;10548;47.504;8.248;2023-04-25T13:03:20;10.60;99.90
20777;DHT22;10548;47.504;8.248;2023-04-25T13:05:47;10.30;99.90
20777;DHT22;10548;47.504;8.248;2023-04-25T13:08:14;10.30;99.90
20777;DHT22;10548;47.504;8.248;2023-04-25T13:10:42;10.30;99.90
20777;DHT22;10548;47.504;8.248;2023-04-25T13:13:09;10.40;99.90
20777;DHT22;10548;47.504;8.248;2023-04-25T13:15:36;10.10;99.90
20777;DHT22;10548;47.504;8.248;2023-04-25T13:18:04;10.30;99.90
20777;DHT22;10548;47.504;8.248;2023-04-25T13:20:35;10.20;99.90
20777;DHT22;10548;47.504;8.248;2023-04-25T13:23:02;10.20;99.90
20777;DHT22;10548;47.504;8.248;2023-04-25T13:25:30;10.30;99.90
20777;DHT22;10548;47.504;8.248;2023-04-25T13:27:57;10.30;99.90
20777;DHT22;10548;47.504;8.248;2023-04-25T13:30:24;10.30;99.90
20777;DHT22;10548;47.504;8.248;2023-04-25T13:32:51;10.10;99.90
20777;DHT22;10548;47.504;8.248;2023-04-25T13:35:19;10.10;99.90
20777;DHT22;10548;47.504;8.248;2023-04-25T13:37:46;10.60;99.90
20777;DHT22;10548;47.504;8.248;2023-04-25T13:40:13;11.30;99.90
20777;DHT22;10548;47.504;8.248;2023-04-25T13:42:41;12.00;99.90
20777;DHT22;10548;47.504;8.248;2023-04-25T13:45:11;12.60;99.90
20777;DHT22;10548;47.504;8.248;2023-04-25T13:47:38;12.80;99.90
20777;DHT22;10548;47.504;8.248;2023-04-25T13:50:06;12.90;99.90
20777;DHT22;10548;47.504;8.248;2023-04-25T13:52:34;13.10;99.90
20777;DHT22;10548;47.504;8.248;2023-04-25T13:55:01;13.00;99.90
20777;DHT22;10548;47.504;8.248;2023-04-25T13:57:34;12.90;99.90
20777;DHT22;10548;47.504;8.248;2023-04-25T14:00:03;13.90;99.90
20777;DHT22;10548;47.504;8.248;2023-04-25T14:02:35;13.60;95.70
20777;DHT22;10548;47.504;8.248;2023-04-25T14:05:04;13.70;99.90
20777;DHT22;10548;47.504;8.248;2023-04-25T14:07:33;13.50;99.90
20777;DHT22;10548;47.504;8.248;2023-04-25T14:10:00;13.10;99.90
20777;DHT22;10548;47.504;8.248;2023-04-25T14:12:27;13.10;98.70
20777;DHT22;10548;47.504;8.248;2023-04-25T14:14:54;12.80;99.90
20777;DHT22;10548;47.504;8.248;2023-04-25T14:17:21;12.30;99.90
20777;DHT22;10548;47.504;8.248;2023-04-25T14:19:50;12.80;99.90
20777;DHT22;10548;47.504;8.248;2023-04-25T14:22:17;12.20;99.90
20777;DHT22;10548;47.504;8.248;2023-04-25T14:24:44;11.90;98.90
20777;DHT22;10548;47.504;8.248;2023-04-25T14:27:12;11.60;99.00
20777;DHT22;10548;47.504;8.248;2023-04-25T14:29:39;11.60;98.70
20777;DHT22;10548;47.504;8.248;2023-04-25T14:32:06;11.60;99.40
20777;DHT22;10548;47.504;8.248;2023-04-25T14:34:33;11.70;97.20
20777;DHT22;10548;47.504;8.248;2023-04-25T14:37:00;12.10;97.80
20777;DHT22;10548;47.504;8.248;2023-04-25T14:39:27;12.40;97.60
20777;DHT22;10548;47.504;8.248;2023-04-25T14:41:54;12.10;98.80
20777;DHT22;10548;47.504;8.248;2023-04-25T14:44:22;11.90;97.60
20777;DHT22;10548;47.504;8.248;2023-04-25T14:46:50;12.10;97.80
20777;DHT22;10548;47.504;8.248;2023-04-25T14:49:18;11.80;99.50
20777;DHT22;10548;47.504;8.248;2023-04-25T14:51:45;11.50;99.40
20777;DHT22;10548;47.504;8.248;2023-04-25T14:54:13;11.70;99.90
20777;DHT22;10548;47.504;8.248;2023-04-25T14:56:40;11.40;99.90
20777;DHT22;10548;47.504;8.248;2023-04-25T14:59:07;11.30;99.90
20777;DHT22;10548;47.504;8.248;2023-04-25T15:01:34;11.40;99.80
20777;DHT22;10548;47.504;8.248;2023-04-25T15:04:01;11.70;98.30
20777;DHT22;10548;47.504;8.248;2023-04-25T15:06:30;11.40;99.20
20777;DHT22;10548;47.504;8.248;2023-04-25T15:08:57;11.20;98.20
20777;DHT22;10548;47.504;8.248;2023-04-25T15:11:24;11.20;99.00
20777;DHT22;10548;47.504;8.248;2023-04-25T15:13:52;11.40;96.90
20777;DHT22;10548;47.504;8.248;2023-04-25T15:16:20;11.30;97.10
20777;DHT22;10548;47.504;8.248;2023-04-25T15:18:47;11.40;98.70
20777;DHT22;10548;47.504;8.248;2023-04-25T15:21:14;11.60;99.90
20777;DHT22;10548;47.504;8.248;2023-04-25T15:23:41;11.80;98.80
20777;DHT22;10548;47.504;8.248;2023-04-25T15:26:08;12.00;99.50
20777;DHT22;10548;47.504;8.248;2023-04-25T15:28:36;12.20;98.50
20777;DHT22;10548;47.504;8.248;2023-04-25T15:31:03;12.20;98.50
20777;DHT22;10548;47.504;8.248;2023-04-25T15:33:30;12.30;96.80
20777;DHT22;10548;47.504;8.248;2023-04-25T15:35:58;12.50;95.10
20777;DHT22;10548;47.504;8.248;2023-04-25T15:38:25;13.30;95.60
20777;DHT22;10548;47.504;8.248;2023-04-25T15:40:52;13.30;95.30
20777;DHT22;10548;47.504;8.248;2023-04-25T15:43:19;12.80;93.90
20777;DHT22;10548;47.504;8.248;2023-04-25T15:45:47;12.50;92.30
20777;DHT22;10548;47.504;8.248;2023-04-25T15:48:14;12.30;95.50
20777;DHT22;10548;47.504;8.248;2023-04-25T15:50:41;12.30;95.10
20777;DHT22;10548;47.504;8.248;2023-04-25T15:53:09;12.30;96.10
20777;DHT22;10548;47.504;8.248;2023-04-25T15:55:36;11.80;95.00
20777;DHT22;10548;47.504;8.248;2023-04-25T15:58:03;11.70;96.40
20777;DHT22;10548;47.504;8.248;2023-04-25T16:00:30;11.80;96.10
20777;DHT22;10548;47.504;8.248;2023-04-25T16:03:01;11.50;96.20
20777;DHT22;10548;47.504;8.248;2023-04-25T16:05:29;11.40;98.20
20777;DHT22;10548;47.504;8.248;2023-04-25T16:07:56;11.30;97.90
20777;DHT22;10548;47.504;8.248;2023-04-25T16:10:23;11.20;97.30